NCAR-RAP Real-Time Weather Data

Output produced by METARs form (23 October 2017  09:34 UTC)
found at http://weather.rap.ucar.edu/surface/
 
Conditions at: KLOU observed 23 October 2017  08:53 UTC
Temperature: 19.4°C (67°F)
Dewpoint: 14.4°C (58°F) [RH = 73%]
Pressure (altimeter): 29.88 inches Hg (1011.9 mb)
[Sea-level pressure: 1011.2 mb]
Winds: from the ESE (120 degrees) at 10 MPH (9 knots; 4.7 m/s)
Visibility: 10 or more miles (16+ km)
Ceiling: 11000 feet AGL
Clouds: overcast cloud deck at 11000 feet AGL
Present Weather: -RA  (light rain)
KLOU 230853Z AUTO 12009KT 10SM -RA OVC110 19/14 A2988 RMK AO2 RAB42 SLP112 P0000 60000 T01940144 58023